sensor_id;sensor_type;location;lat;lon;timestamp;temperature;humidity
15949;DHT22;14848;50.954;6.642;2022-09-01T05:43:29;20.20;99.90
15949;DHT22;14848;50.954;6.642;2022-09-01T05:53:25;22.70;99.90
15949;DHT22;14848;50.954;6.642;2022-09-01T05:55:51;22.90;99.90
15949;DHT22;14848;50.954;6.642;2022-09-01T06:03:16;22.90;99.90
15949;DHT22;14848;50.954;6.642;2022-09-01T06:13:09;26.10;99.90
15949;DHT22;14848;50.954;6.642;2022-09-01T06:15:36;26.10;99.90
15949;DHT22;14848;50.954;6.642;2022-09-01T06:18:05;26.20;99.90
15949;DHT22;14848;50.954;6.642;2022-09-01T06:20:32;26.40;99.90
15949;DHT22;14848;50.954;6.642;2022-09-01T06:22:58;26.10;99.90
15949;DHT22;14848;50.954;6.642;2022-09-01T06:25:24;26.20;99.90
15949;DHT22;14848;50.954;6.642;2022-09-01T06:27:55;26.30;99.90
15949;DHT22;14848;50.954;6.642;2022-09-01T06:30:21;26.30;99.90
15949;DHT22;14848;50.954;6.642;2022-09-01T06:32:49;26.20;99.90
15949;DHT22;14848;50.954;6.642;2022-09-01T06:35:16;26.50;99.90
15949;DHT22;14848;50.954;6.642;2022-09-01T06:37:43;26.70;99.90
15949;DHT22;14848;50.954;6.642;2022-09-01T06:40:11;26.60;99.90
15949;DHT22;14848;50.954;6.642;2022-09-01T06:42:46;26.80;99.90
15949;DHT22;14848;50.954;6.642;2022-09-01T06:45:14;26.80;99.90
15949;DHT22;14848;50.954;6.642;2022-09-01T06:47:41;26.70;99.90
15949;DHT22;14848;50.954;6.642;2022-09-01T06:50:17;26.80;99.90
15949;DHT22;14848;50.954;6.642;2022-09-01T06:52:44;26.60;99.90
15949;DHT22;14848;50.954;6.642;2022-09-01T06:55:12;26.50;99.90
15949;DHT22;14848;50.954;6.642;2022-09-01T06:57:40;26.50;99.90
15949;DHT22;14848;50.954;6.642;2022-09-01T07:00:14;25.80;99.90
15949;DHT22;14848;50.954;6.642;2022-09-01T07:02:45;25.10;99.90
15949;DHT22;14848;50.954;6.642;2022-09-01T07:05:14;23.90;99.90
15949;DHT22;14848;50.954;6.642;2022-09-01T07:12:50;21.00;99.90
15949;DHT22;14848;50.954;6.642;2022-09-01T07:15:16;20.70;99.90
15949;DHT22;14848;50.954;6.642;2022-09-01T07:17:52;20.50;99.90
15949;DHT22;14848;50.954;6.642;2022-09-01T07:20:22;20.50;99.90
15949;DHT22;14848;50.954;6.642;2022-09-01T07:22:49;20.10;99.90
15949;DHT22;14848;50.954;6.642;2022-09-01T07:25:16;20.10;99.90
15949;DHT22;14848;50.954;6.642;2022-09-01T07:27:43;20.10;99.90
15949;DHT22;14848;50.954;6.642;2022-09-01T07:30:20;20.20;99.90
15949;DHT22;14848;50.954;6.642;2022-09-01T07:32:47;20.30;99.90
15949;DHT22;14848;50.954;6.642;2022-09-01T07:35:15;20.30;99.90
15949;DHT22;14848;50.954;6.642;2022-09-01T07:40:12;20.10;99.90
15949;DHT22;14848;50.954;6.642;2022-09-01T07:42:40;20.10;99.90
15949;DHT22;14848;50.954;6.642;2022-09-01T07:45:07;20.20;99.90
15949;DHT22;14848;50.954;6.642;2022-09-01T07:47:34;20.30;99.90
15949;DHT22;14848;50.954;6.642;2022-09-01T07:50:06;20.20;99.90
15949;DHT22;14848;50.954;6.642;2022-09-01T07:52:38;20.30;99.90
15949;DHT22;14848;50.954;6.642;2022-09-01T07:55:08;20.00;99.90
15949;DHT22;14848;50.954;6.642;2022-09-01T07:57:36;20.10;99.90
15949;DHT22;14848;50.954;6.642;2022-09-01T08:00:04;20.30;99.90
15949;DHT22;14848;50.954;6.642;2022-09-01T08:02:30;20.50;99.90
15949;DHT22;14848;50.954;6.642;2022-09-01T08:04:57;20.60;99.90
15949;DHT22;14848;50.954;6.642;2022-09-01T08:07:23;20.70;99.90
15949;DHT22;14848;50.954;6.642;2022-09-01T08:09:49;20.80;99.90
15949;DHT22;14848;50.954;6.642;2022-09-01T08:12:15;20.80;99.90
15949;DHT22;14848;50.954;6.642;2022-09-01T08:14:41;20.60;99.90
15949;DHT22;14848;50.954;6.642;2022-09-01T08:17:07;20.60;99.90
15949;DHT22;14848;50.954;6.642;2022-09-01T08:19:33;20.70;99.90
15949;DHT22;14848;50.954;6.642;2022-09-01T08:21:58;20.90;99.90
15949;DHT22;14848;50.954;6.642;2022-09-01T08:24:25;20.90;99.90
15949;DHT22;14848;50.954;6.642;2022-09-01T08:26:51;21.00;99.90
15949;DHT22;14848;50.954;6.642;2022-09-01T08:29:17;21.00;99.90
15949;DHT22;14848;50.954;6.642;2022-09-01T08:31:42;21.10;99.90
15949;DHT22;14848;50.954;6.642;2022-09-01T08:34:10;21.10;99.90
15949;DHT22;14848;50.954;6.642;2022-09-01T08:36:37;21.10;99.90
15949;DHT22;14848;50.954;6.642;2022-09-01T08:39:02;21.00;99.90
15949;DHT22;14848;50.954;6.642;2022-09-01T08:42:01;21.10;99.90
15949;DHT22;14848;50.954;6.642;2022-09-01T08:44:43;21.20;99.90
15949;DHT22;14848;50.954;6.642;2022-09-01T08:47:13;21.40;99.90
15949;DHT22;14848;50.954;6.642;2022-09-01T08:49:40;21.40;99.90
15949;DHT22;14848;50.954;6.642;2022-09-01T08:52:30;21.50;99.90
15949;DHT22;14848;50.954;6.642;2022-09-01T08:55:09;21.40;99.90
15949;DHT22;14848;50.954;6.642;2022-09-01T08:57:40;21.40;99.90
15949;DHT22;14848;50.954;6.642;2022-09-01T09:00:09;21.40;99.90
15949;DHT22;14848;50.954;6.642;2022-09-01T09:15:58;21.40;99.90
15949;DHT22;14848;50.954;6.642;2022-09-01T09:21:38;21.50;99.90
15949;DHT22;14848;50.954;6.642;2022-09-01T09:24:25;21.60;99.90
15949;DHT22;14848;50.954;6.642;2022-09-01T09:26:56;21.70;99.90
15949;DHT22;14848;50.954;6.642;2022-09-01T09:29:24;21.90;99.90
15949;DHT22;14848;50.954;6.642;2022-09-01T09:32:03;21.90;99.90
15949;DHT22;14848;50.954;6.642;2022-09-01T09:34:35;22.00;99.90
15949;DHT22;14848;50.954;6.642;2022-09-01T09:39:42;22.10;99.90
15949;DHT22;14848;50.954;6.642;2022-09-01T09:42:12;22.00;99.90
15949;DHT22;14848;50.954;6.642;2022-09-01T09:44:44;21.90;99.90
15949;DHT22;14848;50.954;6.642;2022-09-01T09:47:35;22.00;99.90
15949;DHT22;14848;50.954;6.642;2022-09-01T09:50:15;22.20;99.90
15949;DHT22;14848;50.954;6.642;2022-09-01T09:52:42;22.40;99.90
15949;DHT22;14848;50.954;6.642;2022-09-01T09:57:47;22.50;99.90
15949;DHT22;14848;50.954;6.642;2022-09-01T10:00:32;22.60;99.90
15949;DHT22;14848;50.954;6.642;2022-09-01T10:03:04;22.80;99.90
15949;DHT22;14848;50.954;6.642;2022-09-01T10:05:46;22.70;99.90
15949;DHT22;14848;50.954;6.642;2022-09-01T10:11:03;22.80;99.90
15949;DHT22;14848;50.954;6.642;2022-09-01T10:13:30;22.80;99.90
15949;DHT22;14848;50.954;6.642;2022-09-01T10:16:06;22.80;99.90
15949;DHT22;14848;50.954;6.642;2022-09-01T10:18:41;22.80;99.90
15949;DHT22;14848;50.954;6.642;2022-09-01T10:21:55;22.80;99.90
15949;DHT22;14848;50.954;6.642;2022-09-01T10:24:28;23.00;99.90
15949;DHT22;14848;50.954;6.642;2022-09-01T10:27:00;23.20;99.90
15949;DHT22;14848;50.954;6.642;2022-09-01T10:29:33;23.20;99.90
15949;DHT22;14848;50.954;6.642;2022-09-01T10:32:01;23.10;99.90
15949;DHT22;14848;50.954;6.642;2022-09-01T10:34:33;23.10;99.90
15949;DHT22;14848;50.954;6.642;2022-09-01T10:37:00;23.20;99.90
15949;DHT22;14848;50.954;6.642;2022-09-01T10:39:26;23.40;99.90
15949;DHT22;14848;50.954;6.642;2022-09-01T10:41:53;23.60;99.90
15949;DHT22;14848;50.954;6.642;2022-09-01T10:44:23;23.90;99.90
15949;DHT22;14848;50.954;6.642;2022-09-01T10:46:50;23.90;99.90
15949;DHT22;14848;50.954;6.642;2022-09-01T10:49:55;23.80;99.90
15949;DHT22;14848;50.954;6.642;2022-09-01T10:52:07;23.80;99.90
15949;DHT22;14848;50.954;6.642;2022-09-01T10:54:48;23.90;99.90
15949;DHT22;14848;50.954;6.642;2022-09-01T10:59:43;23.80;99.90
15949;DHT22;14848;50.954;6.642;2022-09-01T11:02:16;23.70;99.90
15949;DHT22;14848;50.954;6.642;2022-09-01T11:15:35;24.40;99.90
15949;DHT22;14848;50.954;6.642;2022-09-01T11:18:06;24.70;99.90
15949;DHT22;14848;50.954;6.642;2022-09-01T11:20:38;24.90;99.90
15949;DHT22;14848;50.954;6.642;2022-09-01T11:23:21;25.10;99.90
15949;DHT22;14848;50.954;6.642;2022-09-01T11:30:55;24.40;99.90
15949;DHT22;14848;50.954;6.642;2022-09-01T11:36:33;24.30;99.90
15949;DHT22;14848;50.954;6.642;2022-09-01T11:47:21;25.20;99.90
15949;DHT22;14848;50.954;6.642;2022-09-01T11:50:02;25.40;99.90
15949;DHT22;14848;50.954;6.642;2022-09-01T11:52:31;25.60;99.90
15949;DHT22;14848;50.954;6.642;2022-09-01T11:54:58;25.80;99.90
15949;DHT22;14848;50.954;6.642;2022-09-01T11:59:57;25.50;99.90
15949;DHT22;14848;50.954;6.642;2022-09-01T12:02:27;25.40;99.90
15949;DHT22;14848;50.954;6.642;2022-09-01T12:04:58;25.00;99.90
15949;DHT22;14848;50.954;6.642;2022-09-01T12:07:47;24.90;99.90
15949;DHT22;14848;50.954;6.642;2022-09-01T12:10:35;25.00;99.90
15949;DHT22;14848;50.954;6.642;2022-09-01T12:13:22;24.90;99.90
15949;DHT22;14848;50.954;6.642;2022-09-01T12:16:09;25.00;99.90
15949;DHT22;14848;50.954;6.642;2022-09-01T12:18:42;25.30;99.90
15949;DHT22;14848;50.954;6.642;2022-09-01T12:21:29;25.50;99.90
15949;DHT22;14848;50.954;6.642;2022-09-01T12:24:17;25.60;99.90
15949;DHT22;14848;50.954;6.642;2022-09-01T12:26:44;25.50;99.90
15949;DHT22;14848;50.954;6.642;2022-09-01T12:29:12;25.50;99.90
15949;DHT22;14848;50.954;6.642;2022-09-01T12:31:44;25.70;99.90
15949;DHT22;14848;50.954;6.642;2022-09-01T12:39:44;24.80;99.90
15949;DHT22;14848;50.954;6.642;2022-09-01T12:45:07;24.90;99.90
15949;DHT22;14848;50.954;6.642;2022-09-01T12:50:06;25.40;99.90
15949;DHT22;14848;50.954;6.642;2022-09-01T12:52:34;25.70;99.90
15949;DHT22;14848;50.954;6.642;2022-09-01T13:02:41;26.10;99.90
15949;DHT22;14848;50.954;6.642;2022-09-01T13:05:22;26.20;99.90
15949;DHT22;14848;50.954;6.642;2022-09-01T13:07:52;26.50;99.90
15949;DHT22;14848;50.954;6.642;2022-09-01T13:10:18;26.80;99.90
15949;DHT22;14848;50.954;6.642;2022-09-01T13:12:45;26.70;99.90
15949;DHT22;14848;50.954;6.642;2022-09-01T13:15:11;26.30;99.90
15949;DHT22;14848;50.954;6.642;2022-09-01T13:17:37;26.30;99.90
15949;DHT22;14848;50.954;6.642;2022-09-01T13:20:04;26.30;99.90
15949;DHT22;14848;50.954;6.642;2022-09-01T13:22:30;26.10;99.90
15949;DHT22;14848;50.954;6.642;2022-09-01T13:24:56;25.90;99.90
15949;DHT22;14848;50.954;6.642;2022-09-01T13:27:22;25.70;99.90
15949;DHT22;14848;50.954;6.642;2022-09-01T13:29:48;25.60;99.90
15949;DHT22;14848;50.954;6.642;2022-09-01T13:32:15;25.40;99.90
15949;DHT22;14848;50.954;6.642;2022-09-01T13:34:41;25.40;99.90
15949;DHT22;14848;50.954;6.642;2022-09-01T13:37:07;25.40;99.90
15949;DHT22;14848;50.954;6.642;2022-09-01T13:39:32;25.30;99.90
15949;DHT22;14848;50.954;6.642;2022-09-01T13:41:58;25.40;99.90
15949;DHT22;14848;50.954;6.642;2022-09-01T13:44:24;25.60;99.90
15949;DHT22;14848;50.954;6.642;2022-09-01T13:46:49;25.50;99.90
15949;DHT22;14848;50.954;6.642;2022-09-01T13:49:15;25.30;99.90
15949;DHT22;14848;50.954;6.642;2022-09-01T13:51:41;25.20;99.90
15949;DHT22;14848;50.954;6.642;2022-09-01T13:54:06;25.20;99.90
15949;DHT22;14848;50.954;6.642;2022-09-01T13:56:32;25.10;99.90
15949;DHT22;14848;50.954;6.642;2022-09-01T13:58:58;25.00;99.90
15949;DHT22;14848;50.954;6.642;2022-09-01T14:01:23;25.00;99.90
15949;DHT22;14848;50.954;6.642;2022-09-01T14:03:49;24.90;99.90
15949;DHT22;14848;50.954;6.642;2022-09-01T14:06:15;24.70;99.90
15949;DHT22;14848;50.954;6.642;2022-09-01T14:08:41;24.90;99.90
15949;DHT22;14848;50.954;6.642;2022-09-01T14:11:07;25.10;99.90
15949;DHT22;14848;50.954;6.642;2022-09-01T14:13:33;25.10;99.90
15949;DHT22;14848;50.954;6.642;2022-09-01T14:15:59;25.20;99.90
15949;DHT22;14848;50.954;6.642;2022-09-01T14:18:25;25.40;99.90
15949;DHT22;14848;50.954;6.642;2022-09-01T14:20:57;25.50;99.90
15949;DHT22;14848;50.954;6.642;2022-09-01T14:23:25;25.60;99.90
15949;DHT22;14848;50.954;6.642;2022-09-01T14:25:51;25.90;99.90
15949;DHT22;14848;50.954;6.642;2022-09-01T14:28:19;26.30;99.90
15949;DHT22;14848;50.954;6.642;2022-09-01T14:30:45;26.50;99.90
15949;DHT22;14848;50.954;6.642;2022-09-01T14:33:11;26.70;99.90
15949;DHT22;14848;50.954;6.642;2022-09-01T14:35:42;26.80;99.90
15949;DHT22;14848;50.954;6.642;2022-09-01T14:38:10;27.00;99.90
15949;DHT22;14848;50.954;6.642;2022-09-01T14:40:37;26.70;99.90
15949;DHT22;14848;50.954;6.642;2022-09-01T14:43:04;26.50;99.90
15949;DHT22;14848;50.954;6.642;2022-09-01T14:45:31;26.10;99.90
15949;DHT22;14848;50.954;6.642;2022-09-01T14:47:58;26.20;99.90
15949;DHT22;14848;50.954;6.642;2022-09-01T14:50:27;26.10;99.90
15949;DHT22;14848;50.954;6.642;2022-09-01T14:52:57;26.20;99.90
15949;DHT22;14848;50.954;6.642;2022-09-01T14:55:25;26.20;99.90
15949;DHT22;14848;50.954;6.642;2022-09-01T14:57:53;26.10;99.90
15949;DHT22;14848;50.954;6.642;2022-09-01T15:00:20;26.30;99.90
15949;DHT22;14848;50.954;6.642;2022-09-01T15:02:46;26.50;99.90
15949;DHT22;14848;50.954;6.642;2022-09-01T15:05:13;26.90;99.90
15949;DHT22;14848;50.954;6.642;2022-09-01T15:07:40;27.10;99.90
15949;DHT22;14848;50.954;6.642;2022-09-01T15:10:07;27.10;99.90
15949;DHT22;14848;50.954;6.642;2022-09-01T15:12:33;27.20;99.90
15949;DHT22;14848;50.954;6.642;2022-09-01T15:15:00;27.30;99.90
15949;DHT22;14848;50.954;6.642;2022-09-01T15:17:27;27.20;99.90
15949;DHT22;14848;50.954;6.642;2022-09-01T15:19:53;27.00;99.90
15949;DHT22;14848;50.954;6.642;2022-09-01T15:22:19;27.00;99.90
15949;DHT22;14848;50.954;6.642;2022-09-01T15:24:45;27.00;99.90
15949;DHT22;14848;50.954;6.642;2022-09-01T15:27:11;26.30;99.90
15949;DHT22;14848;50.954;6.642;2022-09-01T15:29:37;26.20;99.90
15949;DHT22;14848;50.954;6.642;2022-09-01T15:32:13;26.00;99.90
15949;DHT22;14848;50.954;6.642;2022-09-01T15:34:40;26.00;99.90
15949;DHT22;14848;50.954;6.642;2022-09-01T15:37:06;25.70;99.90
15949;DHT22;14848;50.954;6.642;2022-09-01T15:39:32;25.70;99.90
15949;DHT22;14848;50.954;6.642;2022-09-01T15:41:57;25.60;99.90
15949;DHT22;14848;50.954;6.642;2022-09-01T15:44:23;25.60;99.90
15949;DHT22;14848;50.954;6.642;2022-09-01T15:46:49;25.60;99.90
15949;DHT22;14848;50.954;6.642;2022-09-01T15:49:15;25.70;99.90
15949;DHT22;14848;50.954;6.642;2022-09-01T15:51:43;25.80;99.90
15949;DHT22;14848;50.954;6.642;2022-09-01T15:54:12;25.70;99.90
15949;DHT22;14848;50.954;6.642;2022-09-01T15:56:38;25.70;99.90
15949;DHT22;14848;50.954;6.642;2022-09-01T15:59:06;25.80;99.90
15949;DHT22;14848;50.954;6.642;2022-09-01T16:01:35;25.70;99.90
15949;DHT22;14848;50.954;6.642;2022-09-01T16:04:02;25.90;99.90
15949;DHT22;14848;50.954;6.642;2022-09-01T16:06:29;25.90;99.90
15949;DHT22;14848;50.954;6.642;2022-09-01T16:08:54;26.00;99.90
15949;DHT22;14848;50.954;6.642;2022-09-01T16:11:21;26.10;99.90
15949;DHT22;14848;50.954;6.642;2022-09-01T16:13:48;26.40;99.90
15949;DHT22;14848;50.954;6.642;2022-09-01T16:16:37;26.40;99.90
15949;DHT22;14848;50.954;6.642;2022-09-01T16:24:55;27.00;99.90
15949;DHT22;14848;50.954;6.642;2022-09-01T16:27:28;26.70;99.90
15949;DHT22;14848;50.954;6.642;2022-09-01T16:30:09;26.90;99.90
15949;DHT22;14848;50.954;6.642;2022-09-01T16:32:38;27.20;99.90
15949;DHT22;14848;50.954;6.642;2022-09-01T16:35:06;27.30;99.90
15949;DHT22;14848;50.954;6.642;2022-09-01T16:40:51;27.20;99.90
15949;DHT22;14848;50.954;6.642;2022-09-01T16:43:44;27.40;99.90
15949;DHT22;14848;50.954;6.642;2022-09-01T16:46:41;27.40;99.90
15949;DHT22;14848;50.954;6.642;2022-09-01T16:49:35;27.40;99.90
15949;DHT22;14848;50.954;6.642;2022-09-01T16:52:18;27.30;99.90
15949;DHT22;14848;50.954;6.642;2022-09-01T16:55:36;27.20;99.90
15949;DHT22;14848;50.954;6.642;2022-09-01T16:58:16;26.90;99.90
15949;DHT22;14848;50.954;6.642;2022-09-01T17:00:50;26.90;99.90
15949;DHT22;14848;50.954;6.642;2022-09-01T17:03:23;27.00;99.90
15949;DHT22;14848;50.954;6.642;2022-09-01T17:08:24;27.00;99.90
15949;DHT22;14848;50.954;6.642;2022-09-01T17:10:57;27.00;99.90
15949;DHT22;14848;50.954;6.642;2022-09-01T17:13:43;26.80;99.90
15949;DHT22;14848;50.954;6.642;2022-09-01T17:18:56;26.50;99.90
15949;DHT22;14848;50.954;6.642;2022-09-01T17:21:37;26.20;99.90
15949;DHT22;14848;50.954;6.642;2022-09-01T17:26:39;25.70;99.90
15949;DHT22;14848;50.954;6.642;2022-09-01T17:34:42;25.00;99.90
15949;DHT22;14848;50.954;6.642;2022-09-01T17:37:36;25.00;99.90
15949;DHT22;14848;50.954;6.642;2022-09-01T17:43:01;24.80;99.90
15949;DHT22;14848;50.954;6.642;2022-09-01T17:57:28;23.60;99.90
15949;DHT22;14848;50.954;6.642;2022-09-01T18:00:25;23.40;99.90
15949;DHT22;14848;50.954;6.642;2022-09-01T18:03:22;23.30;99.90
15949;DHT22;14848;50.954;6.642;2022-09-01T18:06:03;23.10;99.90
15949;DHT22;14848;50.954;6.642;2022-09-01T18:08:40;22.90;99.90
15949;DHT22;14848;50.954;6.642;2022-09-01T18:13:57;22.70;99.90
15949;DHT22;14848;50.954;6.642;2022-09-01T18:16:30;22.60;99.90
15949;DHT22;14848;50.954;6.642;2022-09-01T18:19:02;22.60;99.90
15949;DHT22;14848;50.954;6.642;2022-09-01T18:21:39;22.40;99.90
15949;DHT22;14848;50.954;6.642;2022-09-01T18:24:14;22.30;99.90
15949;DHT22;14848;50.954;6.642;2022-09-01T18:26:44;22.30;99.90
15949;DHT22;14848;50.954;6.642;2022-09-01T18:29:10;22.30;99.90
15949;DHT22;14848;50.954;6.642;2022-09-01T18:40:23;22.00;99.90
15949;DHT22;14848;50.954;6.642;2022-09-01T18:53:57;21.40;99.90
15949;DHT22;14848;50.954;6.642;2022-09-01T18:59:41;21.10;99.90
15949;DHT22;14848;50.954;6.642;2022-09-01T19:08:09;20.80;99.90
15949;DHT22;14848;50.954;6.642;2022-09-01T19:11:00;20.70;99.90
15949;DHT22;14848;50.954;6.642;2022-09-01T19:13:45;20.60;99.90
15949;DHT22;14848;50.954;6.642;2022-09-01T19:21:23;20.20;99.90
15949;DHT22;14848;50.954;6.642;2022-09-01T19:24:10;20.10;99.90
15949;DHT22;14848;50.954;6.642;2022-09-01T19:26:44;19.90;99.90
15949;DHT22;14848;50.954;6.642;2022-09-01T19:29:24;19.90;99.90
15949;DHT22;14848;50.954;6.642;2022-09-01T19:31:58;19.90;99.90
15949;DHT22;14848;50.954;6.642;2022-09-01T19:34:43;19.90;99.90
15949;DHT22;14848;50.954;6.642;2022-09-01T19:37:10;19.80;99.90
15949;DHT22;14848;50.954;6.642;2022-09-01T19:39:40;19.90;99.90
15949;DHT22;14848;50.954;6.642;2022-09-01T19:42:46;20.00;99.90
15949;DHT22;14848;50.954;6.642;2022-09-01T19:48:16;20.00;99.90
15949;DHT22;14848;50.954;6.642;2022-09-01T19:50:58;20.10;99.90
15949;DHT22;14848;50.954;6.642;2022-09-01T19:56:12;20.30;99.90
15949;DHT22;14848;50.954;6.642;2022-09-01T20:01:17;20.30;99.90
15949;DHT22;14848;50.954;6.642;2022-09-01T20:03:59;20.20;99.90
15949;DHT22;14848;50.954;6.642;2022-09-01T20:06:42;20.20;99.90
15949;DHT22;14848;50.954;6.642;2022-09-01T20:09:18;20.20;99.90
15949;DHT22;14848;50.954;6.642;2022-09-01T20:11:56;20.20;99.90
15949;DHT22;14848;50.954;6.642;2022-09-01T20:17:19;20.20;99.90
15949;DHT22;14848;50.954;6.642;2022-09-01T20:25:20;20.30;99.90
15949;DHT22;14848;50.954;6.642;2022-09-01T20:30:49;20.30;99.90
15949;DHT22;14848;50.954;6.642;2022-09-01T20:33:36;20.20;99.90
15949;DHT22;14848;50.954;6.642;2022-09-01T20:36:33;20.20;99.90
15949;DHT22;14848;50.954;6.642;2022-09-01T20:42:05;20.10;99.90
15949;DHT22;14848;50.954;6.642;2022-09-01T20:44:57;20.10;99.90
15949;DHT22;14848;50.954;6.642;2022-09-01T20:47:27;20.00;99.90
15949;DHT22;14848;50.954;6.642;2022-09-01T20:49:53;19.90;99.90
15949;DHT22;14848;50.954;6.642;2022-09-01T20:52:51;19.80;99.90
15949;DHT22;14848;50.954;6.642;2022-09-01T20:55:17;19.80;99.90
15949;DHT22;14848;50.954;6.642;2022-09-01T20:58:10;19.90;99.90
15949;DHT22;14848;50.954;6.642;2022-09-01T21:00:52;19.80;99.90
15949;DHT22;14848;50.954;6.642;2022-09-01T21:06:20;19.90;99.90
15949;DHT22;14848;50.954;6.642;2022-09-01T21:09:02;19.80;99.90
15949;DHT22;14848;50.954;6.642;2022-09-01T21:22:38;20.10;99.90
15949;DHT22;14848;50.954;6.642;2022-09-01T21:25:04;20.10;99.90
15949;DHT22;14848;50.954;6.642;2022-09-01T21:27:38;20.10;99.90
15949;DHT22;14848;50.954;6.642;2022-09-01T21:30:09;20.10;99.90
15949;DHT22;14848;50.954;6.642;2022-09-01T21:32:36;20.10;99.90
15949;DHT22;14848;50.954;6.642;2022-09-01T21:35:04;20.00;99.90
15949;DHT22;14848;50.954;6.642;2022-09-01T21:37:30;20.00;99.90
15949;DHT22;14848;50.954;6.642;2022-09-01T21:39:56;20.00;99.90
15949;DHT22;14848;50.954;6.642;2022-09-01T21:42:31;20.00;99.90
15949;DHT22;14848;50.954;6.642;2022-09-01T21:44:59;20.00;99.90
15949;DHT22;14848;50.954;6.642;2022-09-01T21:47:26;20.00;99.90
15949;DHT22;14848;50.954;6.642;2022-09-01T21:49:52;20.00;99.90
15949;DHT22;14848;50.954;6.642;2022-09-01T21:52:18;19.90;99.90
15949;DHT22;14848;50.954;6.642;2022-09-01T21:54:44;19.90;99.90
15949;DHT22;14848;50.954;6.642;2022-09-01T21:57:10;19.90;99.90
15949;DHT22;14848;50.954;6.642;2022-09-01T21:59:36;19.90;99.90
15949;DHT22;14848;50.954;6.642;2022-09-01T22:02:01;19.90;99.90
15949;DHT22;14848;50.954;6.642;2022-09-01T22:04:27;19.90;99.90
15949;DHT22;14848;50.954;6.642;2022-09-01T22:06:53;19.90;99.90
15949;DHT22;14848;50.954;6.642;2022-09-01T22:09:19;19.90;99.90
15949;DHT22;14848;50.954;6.642;2022-09-01T22:11:46;19.80;99.90
15949;DHT22;14848;50.954;6.642;2022-09-01T22:14:12;19.80;99.90
15949;DHT22;14848;50.954;6.642;2022-09-01T22:16:37;19.70;99.90
15949;DHT22;14848;50.954;6.642;2022-09-01T22:19:04;19.70;99.90
15949;DHT22;14848;50.954;6.642;2022-09-01T22:21:30;19.60;99.90
15949;DHT22;14848;50.954;6.642;2022-09-01T22:28:59;19.50;99.90
15949;DHT22;14848;50.954;6.642;2022-09-01T22:31:27;19.50;99.90
15949;DHT22;14848;50.954;6.642;2022-09-01T22:33:54;19.50;99.90
15949;DHT22;14848;50.954;6.642;2022-09-01T22:36:26;19.50;99.90
15949;DHT22;14848;50.954;6.642;2022-09-01T22:38:52;19.40;99.90
15949;DHT22;14848;50.954;6.642;2022-09-01T22:41:19;19.40;99.90
15949;DHT22;14848;50.954;6.642;2022-09-01T22:43:46;19.40;99.90
15949;DHT22;14848;50.954;6.642;2022-09-01T22:46:13;19.40;99.90
15949;DHT22;14848;50.954;6.642;2022-09-01T22:48:39;19.40;99.90
15949;DHT22;14848;50.954;6.642;2022-09-01T22:51:06;19.40;99.90
15949;DHT22;14848;50.954;6.642;2022-09-01T22:53:33;19.40;99.90
15949;DHT22;14848;50.954;6.642;2022-09-01T22:55:59;19.40;99.90
15949;DHT22;14848;50.954;6.642;2022-09-01T22:58:25;19.40;99.90
15949;DHT22;14848;50.954;6.642;2022-09-01T23:00:52;19.30;99.90
15949;DHT22;14848;50.954;6.642;2022-09-01T23:03:19;19.40;99.90
15949;DHT22;14848;50.954;6.642;2022-09-01T23:05:46;19.40;99.90
15949;DHT22;14848;50.954;6.642;2022-09-01T23:08:13;19.40;99.90
15949;DHT22;14848;50.954;6.642;2022-09-01T23:10:39;19.40;99.90
15949;DHT22;14848;50.954;6.642;2022-09-01T23:13:05;19.40;99.90
15949;DHT22;14848;50.954;6.642;2022-09-01T23:15:31;19.40;99.90
15949;DHT22;14848;50.954;6.642;2022-09-01T23:17:57;19.40;99.90
15949;DHT22;14848;50.954;6.642;2022-09-01T23:20:23;19.40;99.90
15949;DHT22;14848;50.954;6.642;2022-09-01T23:22:49;19.40;99.90
15949;DHT22;14848;50.954;6.642;2022-09-01T23:25:15;19.40;99.90
15949;DHT22;14848;50.954;6.642;2022-09-01T23:27:41;19.40;99.90
15949;DHT22;14848;50.954;6.642;2022-09-01T23:30:09;19.40;99.90
15949;DHT22;14848;50.954;6.642;2022-09-01T23:32:35;19.30;99.90
15949;DHT22;14848;50.954;6.642;2022-09-01T23:35:01;19.40;99.90
15949;DHT22;14848;50.954;6.642;2022-09-01T23:37:27;19.30;99.90
15949;DHT22;14848;50.954;6.642;2022-09-01T23:39:54;19.30;99.90
15949;DHT22;14848;50.954;6.642;2022-09-01T23:42:20;19.30;99.90
15949;DHT22;14848;50.954;6.642;2022-09-01T23:44:47;19.50;99.90
15949;DHT22;14848;50.954;6.642;2022-09-01T23:47:12;19.20;99.90
15949;DHT22;14848;50.954;6.642;2022-09-01T23:49:39;19.20;99.90
15949;DHT22;14848;50.954;6.642;2022-09-01T23:52:05;19.20;99.90
15949;DHT22;14848;50.954;6.642;2022-09-01T23:54:31;19.10;99.90
15949;DHT22;14848;50.954;6.642;2022-09-01T23:56:57;19.10;99.90
15949;DHT22;14848;50.954;6.642;2022-09-01T23:59:23;19.10;99.90
